createdAt,value
2022-10-11T00:00:03.445Z,7.37
2022-10-11T00:01:04.004Z,7.37
2022-10-11T00:02:03.756Z,7.37
2022-10-11T00:03:04.061Z,7.35
2022-10-11T00:04:03.535Z,7.32
2022-10-11T00:05:03.645Z,7.32
2022-10-11T00:06:03.984Z,7.34
2022-10-11T00:07:22.744Z,7.31
2022-10-11T00:08:03.204Z,7.31
2022-10-11T00:09:04.238Z,7.30
2022-10-11T00:10:04.045Z,7.30
2022-10-11T00:11:04.335Z,7.31
2022-10-11T00:12:03.475Z,7.32
2022-10-11T00:13:03.918Z,7.30
2022-10-11T00:14:04.186Z,7.28
2022-10-11T00:15:03.518Z,7.31
2022-10-11T00:16:03.888Z,7.31
2022-10-11T00:17:22.608Z,7.28
2022-10-11T00:18:05.414Z,7.28
2022-10-11T00:19:03.624Z,7.25
2022-10-11T00:20:03.948Z,7.23
2022-10-11T00:21:03.071Z,7.23
2022-10-11T00:22:03.037Z,7.21
2022-10-11T00:23:03.327Z,7.17
2022-10-11T00:24:04.110Z,7.20
2022-10-11T00:25:03.129Z,7.16
2022-10-11T00:26:04.288Z,7.16
2022-10-11T00:27:22.534Z,7.17
2022-10-11T00:28:02.439Z,7.17
2022-10-11T00:29:02.719Z,7.20
2022-10-11T00:30:03.379Z,7.15
2022-10-11T00:31:03.131Z,7.10
2022-10-11T00:32:02.425Z,7.09
2022-10-11T00:33:02.668Z,7.06
2022-10-11T00:34:02.401Z,7.06
2022-10-11T00:35:02.646Z,7.06
2022-10-11T00:36:02.902Z,7.06
2022-10-11T00:37:23.364Z,7.05
2022-10-11T00:38:02.427Z,7.05
2022-10-11T00:39:02.661Z,7.02
2022-10-11T00:40:02.403Z,6.99
2022-10-11T00:41:02.130Z,6.98
2022-10-11T00:42:02.370Z,6.98
2022-10-11T00:43:02.113Z,6.97
2022-10-11T00:44:02.351Z,6.95
2022-10-11T00:45:02.595Z,6.91
2022-10-11T00:46:02.716Z,6.89
2022-10-11T00:47:23.582Z,6.87
2022-10-11T00:48:02.379Z,6.85
2022-10-11T00:49:02.114Z,6.81
2022-10-11T00:50:02.371Z,6.79
2022-10-11T00:51:02.525Z,6.79
2022-10-11T00:52:02.346Z,6.80
2022-10-11T00:53:02.098Z,6.80
2022-10-11T00:54:02.323Z,6.80
2022-10-11T00:55:02.065Z,6.80
2022-10-11T00:56:02.788Z,6.79
2022-10-11T00:57:23.554Z,6.79
2022-10-11T00:58:02.345Z,6.77
2022-10-11T00:59:02.089Z,6.77
2022-10-11T01:00:02.356Z,6.76
2022-10-11T01:01:02.133Z,6.77
2022-10-11T01:02:02.318Z,6.77
2022-10-11T01:03:02.042Z,6.76
2022-10-11T01:04:02.305Z,6.76
2022-10-11T01:05:27.549Z,6.76
2022-10-11T01:06:03.707Z,6.74
2022-10-11T01:07:22.069Z,6.73
2022-10-11T01:08:02.288Z,6.70
2022-10-11T01:09:02.038Z,6.70
2022-10-11T01:10:02.272Z,6.69
2022-10-11T01:11:02.006Z,6.64
2022-10-11T01:12:02.248Z,6.66
2022-10-11T01:13:01.986Z,6.66
2022-10-11T01:14:02.232Z,6.64
2022-10-11T01:15:01.957Z,6.64
2022-10-11T01:16:02.681Z,6.69
2022-10-11T01:17:21.978Z,6.69
2022-10-11T01:18:02.216Z,6.67
2022-10-11T01:19:01.959Z,6.64
2022-10-11T01:20:02.218Z,6.62
2022-10-11T01:21:01.951Z,6.59
2022-10-11T01:22:01.684Z,6.58
2022-10-11T01:23:01.929Z,6.58
2022-10-11T01:24:06.001Z,6.55
2022-10-11T01:25:02.915Z,6.52
2022-10-11T01:26:02.160Z,6.52
2022-10-11T01:27:21.899Z,6.52
2022-10-11T01:28:01.629Z,6.51
2022-10-11T01:29:01.873Z,6.52
2022-10-11T01:30:01.635Z,6.48
2022-10-11T01:31:01.855Z,6.49
2022-10-11T01:32:02.097Z,6.48
2022-10-11T01:33:01.841Z,6.46
2022-10-11T01:34:02.082Z,6.46
2022-10-11T01:35:01.821Z,6.41
2022-10-11T01:36:01.961Z,6.41
2022-10-11T01:37:22.592Z,6.40
2022-10-11T01:38:01.668Z,6.38
2022-10-11T01:39:01.910Z,6.38
2022-10-11T01:40:01.668Z,6.36
2022-10-11T01:41:01.893Z,6.36
2022-10-11T01:42:01.626Z,6.36
2022-10-11T01:43:01.872Z,6.34
2022-10-11T01:44:01.634Z,6.34
2022-10-11T01:45:01.863Z,6.33
2022-10-11T01:46:01.897Z,6.31
2022-10-11T01:47:23.407Z,6.31
2022-10-11T01:48:01.692Z,6.33
2022-10-11T01:49:01.923Z,6.33
2022-10-11T01:50:01.695Z,6.34
2022-10-11T01:51:01.421Z,6.34
2022-10-11T01:52:01.667Z,6.33
2022-10-11T01:53:01.399Z,6.31
2022-10-11T01:54:01.637Z,6.31
2022-10-11T01:55:09.660Z,6.33
2022-10-11T01:56:03.051Z,6.31
2022-10-11T01:57:23.356Z,6.30
2022-10-11T01:58:01.636Z,6.28
2022-10-11T01:59:01.376Z,6.27
2022-10-11T02:00:01.616Z,6.25
2022-10-11T02:01:01.946Z,6.27
2022-10-11T02:02:01.598Z,6.25
2022-10-11T02:03:01.343Z,6.22
2022-10-11T02:04:01.575Z,6.21
2022-10-11T02:05:01.358Z,6.21
2022-10-11T02:06:01.868Z,6.21
2022-10-11T02:07:22.082Z,6.21
2022-10-11T02:08:01.691Z,6.21
2022-10-11T02:09:04.486Z,6.21
2022-10-11T02:10:02.722Z,6.19
2022-10-11T02:11:01.477Z,6.18
2022-10-11T02:12:01.261Z,6.19
2022-10-11T02:13:01.517Z,6.18
2022-10-11T02:14:01.303Z,6.17
2022-10-11T02:15:01.578Z,6.18
2022-10-11T02:16:01.375Z,6.15
2022-10-11T02:17:23.078Z,6.11
2022-10-11T02:18:01.405Z,6.14
2022-10-11T02:19:01.684Z,6.12
2022-10-11T02:20:01.457Z,6.14
2022-10-11T02:21:01.255Z,6.12
2022-10-11T02:22:01.525Z,6.11
2022-10-11T02:23:01.294Z,6.09
2022-10-11T02:24:01.575Z,6.09
2022-10-11T02:25:01.356Z,6.09
2022-10-11T02:26:01.323Z,6.08
2022-10-11T02:27:22.875Z,6.06
2022-10-11T02:28:01.225Z,6.06
2022-10-11T02:29:01.507Z,6.04
2022-10-11T02:30:01.256Z,6.03
2022-10-11T02:31:01.546Z,6.00
2022-10-11T02:32:01.273Z,6.01
2022-10-11T02:33:01.069Z,6.00
2022-10-11T02:34:01.351Z,6.00
2022-10-11T02:35:01.087Z,5.99
2022-10-11T02:36:01.726Z,6.00
2022-10-11T02:37:22.158Z,5.99
2022-10-11T02:38:01.427Z,6.00
2022-10-11T02:39:01.163Z,5.97
2022-10-11T02:40:01.402Z,5.94
2022-10-11T02:41:01.162Z,5.96
2022-10-11T02:42:01.391Z,5.94
2022-10-11T02:43:01.135Z,5.93
2022-10-11T02:44:01.372Z,5.91
2022-10-11T02:45:01.114Z,5.91
2022-10-11T02:46:01.717Z,5.91
2022-10-11T02:47:21.643Z,5.89
2022-10-11T02:48:00.943Z,5.86
2022-10-11T02:49:01.180Z,5.85
2022-10-11T02:50:00.913Z,5.83
2022-10-11T02:51:01.154Z,5.83
2022-10-11T02:52:00.905Z,5.82
2022-10-11T02:53:01.148Z,5.82
2022-10-11T02:54:00.881Z,5.81
2022-10-11T02:55:01.114Z,5.81
2022-10-11T02:56:00.866Z,5.82
2022-10-11T02:57:22.667Z,5.81
2022-10-11T02:58:00.956Z,5.81
2022-10-11T02:59:01.197Z,5.79
2022-10-11T03:00:00.935Z,5.78
2022-10-11T03:01:01.193Z,5.78
2022-10-11T03:02:01.007Z,5.76
2022-10-11T03:03:01.178Z,5.76
2022-10-11T03:04:00.925Z,5.75
2022-10-11T03:05:01.169Z,5.74
2022-10-11T03:06:01.188Z,5.75
2022-10-11T03:07:21.247Z,5.75
2022-10-11T03:08:00.938Z,5.75
2022-10-11T03:09:00.681Z,5.75
2022-10-11T03:10:00.932Z,5.72
2022-10-11T03:11:00.666Z,5.68
2022-10-11T03:12:00.903Z,5.65
2022-10-11T03:13:00.643Z,5.65
2022-10-11T03:14:00.876Z,5.65
2022-10-11T03:15:00.612Z,5.63
2022-10-11T03:16:07.288Z,5.63
2022-10-11T03:17:36.244Z,5.63
2022-10-11T03:18:01.903Z,5.63
2022-10-11T03:19:00.637Z,5.60
2022-10-11T03:20:00.881Z,5.60
2022-10-11T03:21:00.633Z,5.58
2022-10-11T03:22:00.858Z,5.58
2022-10-11T03:23:00.610Z,5.58
2022-10-11T03:24:00.848Z,5.56
2022-10-11T03:25:04.121Z,5.54
2022-10-11T03:26:00.820Z,5.53
2022-10-11T03:27:20.670Z,5.53
2022-10-11T03:28:00.850Z,5.53
2022-10-11T03:29:00.591Z,5.49
2022-10-11T03:30:00.845Z,5.49
2022-10-11T03:31:00.569Z,5.48
2022-10-11T03:32:00.809Z,5.46
2022-10-11T03:33:00.551Z,5.46
2022-10-11T03:34:00.788Z,5.49
2022-10-11T03:35:00.538Z,5.49
2022-10-11T03:36:00.781Z,5.48
2022-10-11T03:37:20.547Z,5.45
2022-10-11T03:38:00.783Z,5.45
2022-10-11T03:39:00.522Z,5.45
2022-10-11T03:40:00.763Z,5.43
2022-10-11T03:41:00.501Z,5.40
2022-10-11T03:42:00.763Z,5.42
2022-10-11T03:43:00.493Z,5.42
2022-10-11T03:44:00.743Z,5.42
2022-10-11T03:45:00.483Z,5.42
2022-10-11T03:46:00.732Z,5.42
2022-10-11T03:47:20.493Z,5.40
2022-10-11T03:48:00.726Z,5.38
2022-10-11T03:49:00.463Z,5.39
2022-10-11T03:50:00.728Z,5.38
2022-10-11T03:51:00.458Z,5.39
2022-10-11T03:52:00.703Z,5.39
2022-10-11T03:53:00.443Z,5.39
2022-10-11T03:54:00.699Z,5.35
2022-10-11T03:55:00.445Z,5.38
2022-10-11T03:56:04.612Z,5.35
2022-10-11T03:57:21.464Z,5.31
2022-10-11T03:58:00.207Z,5.33
2022-10-11T03:59:00.444Z,5.33
2022-10-11T04:00:00.214Z,5.31
2022-10-11T04:01:00.443Z,5.33
2022-10-11T04:02:00.286Z,5.31
2022-10-11T04:03:00.437Z,5.30
2022-10-11T04:04:00.197Z,5.30
2022-10-11T04:05:00.451Z,5.28
2022-10-11T04:06:00.210Z,5.27
2022-10-11T04:07:20.455Z,5.27
2022-10-11T04:08:00.195Z,5.25
2022-10-11T04:09:00.468Z,5.22
2022-10-11T04:10:00.235Z,5.18
2022-10-11T04:11:00.464Z,5.20
2022-10-11T04:12:00.218Z,5.20
2022-10-11T04:13:00.464Z,5.18
2022-10-11T04:14:00.196Z,5.20
2022-10-11T04:15:00.450Z,5.15
2022-10-11T04:16:00.208Z,5.13
2022-10-11T04:17:20.477Z,5.13
2022-10-11T04:18:00.200Z,5.15
2022-10-11T04:19:00.428Z,5.13
2022-10-11T04:20:00.190Z,5.13
2022-10-11T04:21:00.431Z,5.15
2022-10-11T04:22:00.173Z,5.13
2022-10-11T04:23:00.398Z,5.15
2022-10-11T04:24:00.150Z,5.15
2022-10-11T04:25:00.389Z,5.12
2022-10-11T04:26:00.138Z,5.10
2022-10-11T04:27:20.408Z,5.12
2022-10-11T04:28:00.134Z,5.10
2022-10-11T04:29:00.467Z,5.07
2022-10-11T04:30:00.204Z,5.07
2022-10-11T04:30:59.951Z,5.07
2022-10-11T04:32:00.268Z,5.09
2022-10-11T04:32:59.947Z,5.06
2022-10-11T04:34:00.198Z,5.06
2022-10-11T04:34:59.952Z,5.06
2022-10-11T04:36:00.322Z,5.03
2022-10-11T04:37:19.977Z,5.03
2022-10-11T04:38:00.209Z,5.03
2022-10-11T04:38:59.961Z,5.02
2022-10-11T04:40:00.202Z,5.00
2022-10-11T04:40:59.943Z,4.99
2022-10-11T04:42:00.183Z,5.03
2022-10-11T04:43:00.029Z,5.03
2022-10-11T04:44:00.179Z,5.03
2022-10-11T04:44:59.960Z,5.02
2022-10-11T04:46:00.191Z,5.00
2022-10-11T04:47:19.957Z,4.99
2022-10-11T04:47:59.724Z,4.99
2022-10-11T04:48:59.956Z,4.96
2022-10-11T04:49:59.881Z,4.97
2022-10-11T04:51:00.033Z,4.96
2022-10-11T04:51:59.781Z,5.00
2022-10-11T04:53:00.014Z,4.99
2022-10-11T04:53:59.794Z,4.97
2022-10-11T04:55:00.023Z,4.97
2022-10-11T04:55:59.763Z,4.96
2022-10-11T04:57:20.041Z,4.94
2022-10-11T04:57:59.752Z,4.94
2022-10-11T04:59:00.027Z,4.94
2022-10-11T04:59:59.757Z,4.94
2022-10-11T05:00:59.996Z,4.94
2022-10-11T05:01:59.788Z,4.92
2022-10-11T05:03:00.715Z,4.91
2022-10-11T05:04:01.315Z,4.88
2022-10-11T05:05:01.156Z,4.88
2022-10-11T05:06:05.160Z,4.86
2022-10-11T05:07:20.810Z,4.86
2022-10-11T05:08:00.227Z,4.82
2022-10-11T05:09:00.016Z,4.84
2022-10-11T05:10:01.218Z,4.82
2022-10-11T05:11:00.511Z,4.84
2022-10-11T05:12:00.799Z,4.85
2022-10-11T05:13:00.567Z,4.85
2022-10-11T05:14:00.855Z,4.84
2022-10-11T05:15:00.219Z,4.80
2022-10-11T05:16:00.158Z,4.78
2022-10-11T05:17:19.800Z,4.80
2022-10-11T05:18:01.054Z,4.77
2022-10-11T05:19:01.342Z,4.77
2022-10-11T05:20:01.168Z,4.78
2022-10-11T05:21:00.231Z,4.78
2022-10-11T05:21:59.861Z,4.77
2022-10-11T05:23:00.656Z,4.77
2022-10-11T05:23:59.498Z,4.75
2022-10-11T05:25:00.708Z,4.77
2022-10-11T05:26:00.218Z,4.73
2022-10-11T05:27:19.812Z,4.75
2022-10-11T05:28:01.044Z,4.73
2022-10-11T05:29:00.332Z,4.72
2022-10-11T05:30:01.064Z,4.72
2022-10-11T05:31:00.886Z,4.72
2022-10-11T05:32:01.170Z,4.73
2022-10-11T05:32:58.902Z,4.73
2022-10-11T05:34:00.205Z,4.73
2022-10-11T05:35:01.019Z,4.75
2022-10-11T05:35:59.411Z,4.75
2022-10-11T05:37:19.654Z,4.75
2022-10-11T05:38:00.861Z,4.75
2022-10-11T05:39:00.380Z,4.73
2022-10-11T05:40:00.989Z,4.72
2022-10-11T05:41:00.269Z,4.72
2022-10-11T05:42:01.047Z,4.70
2022-10-11T05:43:00.322Z,4.69
2022-10-11T05:44:01.105Z,4.67
2022-10-11T05:45:00.239Z,4.67
2022-10-11T05:45:59.946Z,4.65
2022-10-11T05:47:19.503Z,4.65
2022-10-11T05:48:00.706Z,4.65
2022-10-11T05:48:59.607Z,4.65
2022-10-11T05:50:00.283Z,4.63
2022-10-11T05:51:00.164Z,4.65
2022-10-11T05:52:00.977Z,4.63
2022-10-11T05:52:59.371Z,4.62
2022-10-11T05:53:59.141Z,4.62
2022-10-11T05:55:00.051Z,4.59
2022-10-11T05:55:59.526Z,4.58
2022-10-11T05:57:19.484Z,4.58
2022-10-11T05:58:00.682Z,4.55
2022-10-11T05:59:02.541Z,4.54
2022-10-11T05:59:59.272Z,4.54
2022-10-11T06:00:59.086Z,4.54
2022-10-11T06:01:59.263Z,4.55
2022-10-11T06:02:58.994Z,4.58
2022-10-11T06:03:59.240Z,4.59
2022-10-11T06:04:58.975Z,4.62
2022-10-11T06:05:58.416Z,4.62
2022-10-11T06:07:19.189Z,4.62
2022-10-11T06:07:58.913Z,4.62
2022-10-11T06:08:58.396Z,4.65
2022-10-11T06:09:59.125Z,4.63
2022-10-11T06:10:58.869Z,4.62
2022-10-11T06:11:58.369Z,4.62
2022-10-11T06:12:58.388Z,4.65
2022-10-11T06:13:59.147Z,4.63
2022-10-11T06:14:58.887Z,4.65
2022-10-11T06:15:59.140Z,4.66
2022-10-11T06:17:20.426Z,4.69
2022-10-11T06:17:59.224Z,4.69
2022-10-11T06:18:58.962Z,4.72
2022-10-11T06:19:59.206Z,4.72
2022-10-11T06:20:58.938Z,4.77
2022-10-11T06:21:59.217Z,4.78
2022-10-11T06:22:58.939Z,4.80
2022-10-11T06:24:01.516Z,4.80
2022-10-11T06:24:58.946Z,4.80
2022-10-11T06:25:59.187Z,4.84
2022-10-11T06:27:20.473Z,4.89
2022-10-11T06:27:58.769Z,4.89
2022-10-11T06:28:59.120Z,4.91
2022-10-11T06:29:58.740Z,4.94
2022-10-11T06:30:58.982Z,4.96
2022-10-11T06:31:58.720Z,5.00
2022-10-11T06:33:03.789Z,5.06
2022-10-11T06:33:59.705Z,5.10
2022-10-11T06:34:58.947Z,5.15
2022-10-11T06:35:58.694Z,5.18
2022-10-11T06:37:19.811Z,5.22
2022-10-11T06:37:58.737Z,5.22
2022-10-11T06:38:58.972Z,5.22
2022-10-11T06:39:58.693Z,5.24
2022-10-11T06:40:58.939Z,5.21
2022-10-11T06:41:58.673Z,5.21
2022-10-11T06:42:58.934Z,5.22
2022-10-11T06:43:58.651Z,5.22
2022-10-11T06:44:58.894Z,5.24
2022-10-11T06:45:58.629Z,5.25
2022-10-11T06:47:20.371Z,5.27
2022-10-11T06:47:58.683Z,5.28
2022-10-11T06:48:58.930Z,5.30
2022-10-11T06:49:58.670Z,5.33
2022-10-11T06:51:00.501Z,5.38
2022-10-11T06:51:58.742Z,5.42
2022-10-11T06:52:58.475Z,5.48
2022-10-11T06:53:58.738Z,5.51
2022-10-11T06:54:58.960Z,5.57
2022-10-11T06:55:58.710Z,5.63
2022-10-11T06:57:20.518Z,5.71
2022-10-11T06:57:58.809Z,5.78
2022-10-11T06:58:58.533Z,5.94
2022-10-11T06:59:58.775Z,6.14
2022-10-11T07:00:58.540Z,6.37
2022-10-11T07:01:58.761Z,6.59
2022-10-11T07:02:58.509Z,6.73
2022-10-11T07:03:58.752Z,6.80
2022-10-11T07:04:58.480Z,6.84
2022-10-11T07:06:02.255Z,6.87
2022-10-11T07:07:19.314Z,6.87
2022-10-11T07:07:58.763Z,6.85
2022-10-11T07:08:58.508Z,6.85
2022-10-11T07:09:58.751Z,6.81
2022-10-11T07:10:58.485Z,6.81
2022-10-11T07:11:58.736Z,6.87
2022-10-11T07:12:58.486Z,6.91
2022-10-11T07:13:58.728Z,6.89
2022-10-11T07:14:58.466Z,6.89
2022-10-11T07:15:58.715Z,6.88
2022-10-11T07:17:19.939Z,6.87
2022-10-11T07:17:58.245Z,6.84
2022-10-11T07:19:00.956Z,6.84
2022-10-11T07:19:58.196Z,6.79
2022-10-11T07:20:58.437Z,6.81
2022-10-11T07:21:58.192Z,6.87
2022-10-11T07:22:58.428Z,6.92
2022-10-11T07:23:58.189Z,6.95
2022-10-11T07:24:58.433Z,6.97
2022-10-11T07:25:58.170Z,6.99
2022-10-11T07:27:19.916Z,7.09
2022-10-11T07:27:58.189Z,7.13
2022-10-11T07:28:58.497Z,7.21
2022-10-11T07:29:58.167Z,7.27
2022-10-11T07:30:58.409Z,7.32
2022-10-11T07:31:58.158Z,7.35
2022-10-11T07:32:58.422Z,7.40
2022-10-11T07:33:58.149Z,7.42
2022-10-11T07:34:58.407Z,7.45
2022-10-11T07:35:58.122Z,7.45
2022-10-11T07:37:19.871Z,7.46
2022-10-11T07:37:58.161Z,7.46
2022-10-11T07:38:58.391Z,7.50
2022-10-11T07:39:58.135Z,7.60
2022-10-11T07:40:58.389Z,7.67
2022-10-11T07:41:58.122Z,7.71
2022-10-11T07:42:58.385Z,7.86
2022-10-11T07:43:58.109Z,8.10
2022-10-11T07:44:58.356Z,8.20
2022-10-11T07:45:58.117Z,8.20
2022-10-11T07:47:18.836Z,8.23
2022-10-11T07:47:58.132Z,8.28
2022-10-11T07:48:58.376Z,8.45
2022-10-11T07:49:58.113Z,8.61
2022-10-11T07:50:58.359Z,8.76
2022-10-11T07:51:58.116Z,8.77
2022-10-11T07:52:58.355Z,8.79
2022-10-11T07:53:58.087Z,8.81
2022-10-11T07:54:58.341Z,8.86
2022-10-11T07:55:58.082Z,8.96
2022-10-11T07:57:19.813Z,9.05
2022-10-11T07:57:58.107Z,9.10
2022-10-11T07:58:57.865Z,9.11
2022-10-11T07:59:58.087Z,9.11
2022-10-11T08:00:57.905Z,9.13
2022-10-11T08:01:58.094Z,9.08
2022-10-11T08:02:57.811Z,9.08
2022-10-11T08:03:58.061Z,9.13
2022-10-11T08:04:57.788Z,9.17
2022-10-11T08:05:58.040Z,9.21
2022-10-11T08:07:19.277Z,9.28
2022-10-11T08:07:58.044Z,9.31
2022-10-11T08:08:57.823Z,9.33
2022-10-11T08:09:58.064Z,9.36
2022-10-11T08:10:57.820Z,9.56
2022-10-11T08:11:58.051Z,9.79
2022-10-11T08:13:03.376Z,10.02
2022-10-11T08:13:59.018Z,10.30
2022-10-11T08:14:57.778Z,10.64
2022-10-11T08:15:58.006Z,10.82
2022-10-11T08:17:17.862Z,11.28
2022-10-11T08:17:58.019Z,11.88
2022-10-11T08:18:57.788Z,13.22
2022-10-11T08:19:57.989Z,14.35
2022-10-11T08:20:57.738Z,15.34
2022-10-11T08:21:57.990Z,16.31
2022-10-11T08:22:57.729Z,17.22
2022-10-11T08:23:57.991Z,17.99
2022-10-11T08:24:57.731Z,18.63
2022-10-11T08:25:57.950Z,19.25
2022-10-11T08:27:18.419Z,19.95
2022-10-11T08:27:57.965Z,20.29
2022-10-11T08:28:57.779Z,20.76
2022-10-11T08:29:57.959Z,21.16
2022-10-11T08:30:57.848Z,21.50
2022-10-11T08:31:57.940Z,21.90
2022-10-11T08:32:57.695Z,22.20
2022-10-11T08:33:58.019Z,22.40
2022-10-11T08:34:57.673Z,22.60
2022-10-11T08:35:57.407Z,22.88
2022-10-11T08:37:18.642Z,23.20
2022-10-11T08:37:57.410Z,23.40
2022-10-11T08:39:15.135Z,23.63
2022-10-11T08:39:57.415Z,23.85
2022-10-11T08:40:57.652Z,23.98
2022-10-11T08:41:57.386Z,24.13
2022-10-11T08:42:57.635Z,24.27
2022-10-11T08:43:57.364Z,24.49
2022-10-11T08:45:12.866Z,24.60
2022-10-11T08:45:58.334Z,24.69
2022-10-11T08:47:18.388Z,24.91
2022-10-11T08:49:06.845Z,25.00
2022-10-11T08:49:17.005Z,25.28
2022-10-11T08:50:12.184Z,25.60
2022-10-11T08:51:12.435Z,25.87
2022-10-11T08:52:13.176Z,26.06
2022-10-11T08:53:13.407Z,26.25
2022-10-11T08:54:13.223Z,26.47
2022-10-11T08:55:13.377Z,26.55
2022-10-11T08:56:28.679Z,26.69
2022-10-11T08:57:34.005Z,26.85
2022-10-11T08:58:12.291Z,27.00
2022-10-11T08:59:13.473Z,26.85
2022-10-11T09:04:02.761Z,26.88
2022-10-11T09:04:07.533Z,27.27
2022-10-11T09:05:08.257Z,27.36
2022-10-11T09:13:51.995Z,27.39
2022-10-11T09:13:56.752Z,28.41
2022-10-11T09:22:06.504Z,28.37
2022-10-11T09:22:11.283Z,29.53
2022-10-11T09:23:33.552Z,29.51
2022-10-11T09:57:22.920Z,29.63
2022-10-11T09:57:29.181Z,31.89
2022-10-11T09:58:29.504Z,31.25
2022-10-11T10:51:52.831Z,30.98
2022-10-11T11:42:16.305Z,33.82
2022-10-11T11:42:22.552Z,32.40
2022-10-11T11:43:22.836Z,31.43
2022-10-11T11:44:27.322Z,30.54
2022-10-11T11:45:23.527Z,29.09
2022-10-11T11:46:41.847Z,27.46
2022-10-11T11:47:21.666Z,26.81
2022-10-11T11:48:23.374Z,26.10
2022-10-11T11:49:23.138Z,25.50
2022-10-11T11:50:23.051Z,24.91
2022-10-11T11:51:25.483Z,24.35
2022-10-11T11:52:23.047Z,23.97
2022-10-11T11:53:22.503Z,23.39
2022-10-11T11:54:22.552Z,23.16
2022-10-11T11:55:23.400Z,22.83
2022-10-11T11:56:41.698Z,22.35
2022-10-11T11:57:23.396Z,22.24
2022-10-11T11:58:23.180Z,22.07
2022-10-11T11:59:23.007Z,21.86
2022-10-11T12:00:22.759Z,21.67
2022-10-11T12:01:21.626Z,21.52
2022-10-11T12:02:22.890Z,21.42
2022-10-11T12:03:23.103Z,21.40
2022-10-11T12:04:22.014Z,21.34
2022-10-11T12:05:23.191Z,21.32
2022-10-11T12:07:04.106Z,21.22
2022-10-11T12:07:23.316Z,21.22
2022-10-11T12:08:23.089Z,21.21
2022-10-11T12:09:22.086Z,21.27
2022-10-11T12:10:23.112Z,21.32
2022-10-11T12:11:21.628Z,21.17
2022-10-11T12:12:23.239Z,21.04
2022-10-11T12:13:23.033Z,20.80
2022-10-11T12:14:22.800Z,20.74
2022-10-11T12:15:23.117Z,20.69
2022-10-11T12:16:41.429Z,20.73
2022-10-11T12:17:21.718Z,20.72
2022-10-11T12:18:21.489Z,20.64
2022-10-11T12:19:23.158Z,20.61
2022-10-11T12:20:23.001Z,20.48
2022-10-11T12:21:22.758Z,20.35
2022-10-11T12:22:21.997Z,20.18
2022-10-11T12:23:22.891Z,20.14
2022-10-11T12:24:21.917Z,20.08
2022-10-11T12:25:22.931Z,20.08
2022-10-11T12:26:41.249Z,20.06
2022-10-11T12:27:22.943Z,20.02
2022-10-11T12:28:22.055Z,19.87
2022-10-11T12:29:28.250Z,19.83
2022-10-11T12:30:23.794Z,19.66
2022-10-11T12:31:22.625Z,19.61
2022-10-11T12:32:22.895Z,19.61
2022-10-11T12:33:22.690Z,19.62
2022-10-11T12:34:22.979Z,19.68
2022-10-11T12:35:21.324Z,19.54
2022-10-11T12:36:41.562Z,19.48
2022-10-11T12:37:22.781Z,19.48
2022-10-11T12:38:22.606Z,19.44
2022-10-11T12:39:22.523Z,19.48
2022-10-11T12:40:22.730Z,19.44
2022-10-11T12:41:22.502Z,19.46
2022-10-11T12:42:21.463Z,19.48
2022-10-11T12:43:21.168Z,19.46
2022-10-11T12:44:22.903Z,19.44
2022-10-11T12:45:22.026Z,19.39
2022-10-11T12:46:40.991Z,19.23
2022-10-11T12:47:22.748Z,19.22
2022-10-11T12:48:22.522Z,19.18
2022-10-11T12:49:22.810Z,19.11
2022-10-11T12:50:22.008Z,19.02
2022-10-11T12:51:22.067Z,18.98
2022-10-11T12:52:21.397Z,18.91
2022-10-11T12:53:21.156Z,18.87
2022-10-11T12:54:27.531Z,18.84
2022-10-11T12:55:22.902Z,18.85
2022-10-11T12:56:41.024Z,18.90
2022-10-11T12:57:21.453Z,18.87
2022-10-11T12:58:21.192Z,18.84
2022-10-11T12:59:22.402Z,18.84
2022-10-11T13:00:22.678Z,18.72
2022-10-11T13:01:21.056Z,18.69
2022-10-11T13:02:21.550Z,18.66
2022-10-11T13:03:21.144Z,18.63
2022-10-11T13:04:22.353Z,18.60
2022-10-11T13:05:22.643Z,18.57
2022-10-11T13:06:40.977Z,18.58
2022-10-11T13:07:22.686Z,18.58
2022-10-11T13:08:21.537Z,18.58
2022-10-11T13:09:20.848Z,18.58
2022-10-11T13:10:22.612Z,18.58
2022-10-11T13:11:21.620Z,18.58
2022-10-11T13:12:20.757Z,18.54
2022-10-11T13:13:21.124Z,18.55
2022-10-11T13:14:21.543Z,18.54
2022-10-11T13:15:22.625Z,18.55
2022-10-11T13:16:40.946Z,18.55
2022-10-11T13:17:21.650Z,18.55
2022-10-11T13:18:22.491Z,18.55
2022-10-11T13:19:20.840Z,18.57
2022-10-11T13:20:21.530Z,18.58
2022-10-11T13:21:23.768Z,18.48
2022-10-11T13:22:21.609Z,18.50
2022-10-11T13:23:22.398Z,18.50
2022-10-11T13:24:22.183Z,18.52
2022-10-11T13:25:21.954Z,18.60
2022-10-11T13:26:40.765Z,18.78
2022-10-11T13:27:21.079Z,18.84
2022-10-11T13:28:21.894Z,18.91
2022-10-11T13:29:20.701Z,18.91
2022-10-11T13:30:21.914Z,18.87
2022-10-11T13:31:22.196Z,18.80
2022-10-11T13:32:21.548Z,18.62
2022-10-11T13:33:22.334Z,18.57
2022-10-11T13:34:23.514Z,18.52
2022-10-11T13:35:23.952Z,18.41
2022-10-11T13:36:40.684Z,18.32
2022-10-11T13:37:21.535Z,18.25
2022-10-11T13:38:20.835Z,18.21
2022-10-11T13:39:22.065Z,18.18
2022-10-11T13:40:22.325Z,18.17
2022-10-11T13:41:22.111Z,18.17
2022-10-11T13:42:21.960Z,18.18
2022-10-11T13:43:21.535Z,18.12
2022-10-11T13:44:22.108Z,18.03
2022-10-11T13:45:21.888Z,17.97
2022-10-11T13:46:41.903Z,17.84
2022-10-11T13:47:21.133Z,17.75
2022-10-11T13:48:21.040Z,17.70
2022-10-11T13:49:22.014Z,17.58
2022-10-11T13:50:20.362Z,17.54
2022-10-11T13:51:22.048Z,17.49
2022-10-11T13:52:21.813Z,17.44
2022-10-11T13:53:22.198Z,17.44
2022-10-11T13:54:20.734Z,17.41
2022-10-11T13:55:21.738Z,17.37
2022-10-11T13:56:40.546Z,17.36
2022-10-11T13:57:20.973Z,17.36
2022-10-11T13:58:22.055Z,17.36
2022-10-11T13:59:21.814Z,17.36
2022-10-11T14:00:21.074Z,17.34
2022-10-11T14:01:21.973Z,17.33
2022-10-11T14:02:21.717Z,17.33
2022-10-11T14:03:22.008Z,17.31
2022-10-11T14:04:24.092Z,17.28
2022-10-11T14:05:22.057Z,17.26
2022-10-11T14:06:40.411Z,17.28
2022-10-11T14:07:21.085Z,17.28
2022-10-11T14:08:21.864Z,17.33
2022-10-11T14:09:21.689Z,17.30
2022-10-11T14:10:20.604Z,17.31
2022-10-11T14:11:21.045Z,17.33
2022-10-11T14:12:21.067Z,17.33
2022-10-11T14:13:20.417Z,17.31
2022-10-11T14:14:20.270Z,17.33
2022-10-11T14:15:21.943Z,17.36
2022-10-11T14:16:40.261Z,17.37
2022-10-11T14:17:21.964Z,17.40
2022-10-11T14:18:21.751Z,17.41
2022-10-11T14:19:21.569Z,17.43
2022-10-11T14:20:20.395Z,17.44
2022-10-11T14:21:21.077Z,17.51
2022-10-11T14:22:20.477Z,17.55
2022-10-11T14:23:20.860Z,17.59
2022-10-11T14:24:20.487Z,17.59
2022-10-11T14:25:21.707Z,17.64
2022-10-11T14:26:40.022Z,17.66
2022-10-11T14:27:20.589Z,17.70
2022-10-11T14:28:20.127Z,17.72
2022-10-11T14:29:20.403Z,17.75
2022-10-11T14:30:26.515Z,17.79
2022-10-11T14:31:21.278Z,17.82
2022-10-11T14:32:21.764Z,17.84
2022-10-11T14:33:20.583Z,17.84
2022-10-11T14:34:20.575Z,17.86
2022-10-11T14:35:21.600Z,17.86
2022-10-11T14:36:39.912Z,17.86
2022-10-11T14:37:21.608Z,17.82
2022-10-11T14:38:21.379Z,17.79
2022-10-11T14:39:21.661Z,17.75
2022-10-11T14:40:21.328Z,17.75
2022-10-11T14:41:21.759Z,17.71
2022-10-11T14:42:20.091Z,17.70
2022-10-11T14:43:20.792Z,17.68
2022-10-11T14:44:20.813Z,17.70
2022-10-11T14:45:21.456Z,17.70
2022-10-11T14:46:40.170Z,17.70
2022-10-11T14:47:21.465Z,17.68
2022-10-11T14:48:43.087Z,17.63
2022-10-11T14:49:22.509Z,17.56
2022-10-11T14:50:19.825Z,17.55
2022-10-11T14:51:21.568Z,17.52
2022-10-11T14:52:20.587Z,17.51
2022-10-11T14:53:19.731Z,17.48
2022-10-11T14:54:20.004Z,17.48
2022-10-11T14:55:21.166Z,17.48
2022-10-11T14:56:40.000Z,17.46
2022-10-11T14:57:20.593Z,17.43
2022-10-11T14:58:21.508Z,17.40
2022-10-11T14:59:21.322Z,17.33
2022-10-11T15:00:20.589Z,17.26
2022-10-11T15:01:21.467Z,17.22
2022-10-11T15:02:21.186Z,17.12
2022-10-11T15:03:20.134Z,17.03
2022-10-11T15:04:21.391Z,17.00
2022-10-11T15:05:19.739Z,16.96
2022-10-11T15:06:39.972Z,16.91
2022-10-11T15:07:19.705Z,16.89
2022-10-11T15:08:26.210Z,16.89
2022-10-11T15:09:19.943Z,16.88
2022-10-11T15:10:19.712Z,16.88
2022-10-11T15:11:19.454Z,16.91
2022-10-11T15:12:19.696Z,16.93
2022-10-11T15:13:19.436Z,16.91
2022-10-11T15:14:19.684Z,16.91
2022-10-11T15:15:19.429Z,16.88
2022-10-11T15:16:39.675Z,16.88
2022-10-11T15:17:19.397Z,16.88
2022-10-11T15:18:19.651Z,16.89
2022-10-11T15:19:19.390Z,16.89
2022-10-11T15:20:19.655Z,16.89
2022-10-11T15:21:19.386Z,16.86
2022-10-11T15:22:19.629Z,16.88
2022-10-11T15:23:19.395Z,16.86
2022-10-11T15:24:19.638Z,16.83
2022-10-11T15:25:19.371Z,16.83
2022-10-11T15:26:39.621Z,16.82
2022-10-11T15:27:19.355Z,16.82
2022-10-11T15:28:19.680Z,16.82
2022-10-11T15:29:19.375Z,16.81
2022-10-11T15:30:19.621Z,16.81
2022-10-11T15:31:19.380Z,16.79
2022-10-11T15:32:19.610Z,16.79
2022-10-11T15:33:19.390Z,16.78
2022-10-11T15:34:19.619Z,16.75
2022-10-11T15:35:19.390Z,16.73
2022-10-11T15:36:39.615Z,16.73
2022-10-11T15:37:19.352Z,16.71